sensor_id;sensor_type;location;lat;lon;timestamp;pressure;altitude;pressure_sealevel;temperature;humidity
58092;BME280;43896;48.178;11.578;2022-10-17T00:01:35;96406.88;;;14.37;75.76
58092;BME280;43896;48.178;11.578;2022-10-17T00:04:00;96448.41;;;14.61;75.62
58092;BME280;43896;48.178;11.578;2022-10-17T00:06:25;96445.91;;;14.51;75.42
58092;BME280;43896;48.178;11.578;2022-10-17T00:08:51;96495.53;;;14.82;75.62
58092;BME280;43896;48.178;11.578;2022-10-17T00:11:19;96494.53;;;14.83;75.67
58092;BME280;43896;48.178;11.578;2022-10-17T00:13:46;96474.22;;;14.59;75.59
58092;BME280;43896;48.178;11.578;2022-10-17T00:16:12;96510.09;;;14.70;75.48
58092;BME280;43896;48.178;11.578;2022-10-17T00:18:38;96515.38;;;14.70;75.51
58092;BME280;43896;48.178;11.578;2022-10-17T00:21:04;96509.13;;;14.62;75.77
58092;BME280;43896;48.178;11.578;2022-10-17T00:23:29;96476.88;;;14.42;75.71
58092;BME280;43896;48.178;11.578;2022-10-17T00:26:00;96497.34;;;14.49;75.99
58092;BME280;43896;48.178;11.578;2022-10-17T00:28:26;96414.19;;;14.02;75.97
58092;BME280;43896;48.178;11.578;2022-10-17T00:30:59;96416.19;;;14.00;76.29
58092;BME280;43896;48.178;11.578;2022-10-17T00:33:26;96437.69;;;14.05;76.03
58092;BME280;43896;48.178;11.578;2022-10-17T00:36:01;96513.06;;;14.50;76.45
58092;BME280;43896;48.178;11.578;2022-10-17T00:38:27;96423.44;;;13.90;76.27
58092;BME280;43896;48.178;11.578;2022-10-17T00:40:52;96510.75;;;14.47;76.29
58092;BME280;43896;48.178;11.578;2022-10-17T00:43:18;96511.91;;;14.44;75.78
58092;BME280;43896;48.178;11.578;2022-10-17T00:45:44;96435.84;;;13.97;75.51
58092;BME280;43896;48.178;11.578;2022-10-17T00:48:10;96398.34;;;13.77;75.84
58092;BME280;43896;48.178;11.578;2022-10-17T00:50:38;96436.50;;;13.91;75.99
58092;BME280;43896;48.178;11.578;2022-10-17T00:53:04;96520.03;;;14.43;75.59
58092;BME280;43896;48.178;11.578;2022-10-17T00:55:32;96522.50;;;14.36;75.24
58092;BME280;43896;48.178;11.578;2022-10-17T00:58:00;96486.09;;;14.05;75.12
58092;BME280;43896;48.178;11.578;2022-10-17T01:00:27;96499.50;;;14.12;75.61
58092;BME280;43896;48.178;11.578;2022-10-17T01:02:52;96455.81;;;13.83;75.83
58092;BME280;43896;48.178;11.578;2022-10-17T01:05:18;96520.16;;;14.25;75.84
58092;BME280;43896;48.178;11.578;2022-10-17T01:07:45;96454.66;;;13.69;75.93
58092;BME280;43896;48.178;11.578;2022-10-17T01:10:12;96445.06;;;13.60;75.87
58092;BME280;43896;48.178;11.578;2022-10-17T01:12:47;96513.88;;;14.01;76.29
58092;BME280;43896;48.178;11.578;2022-10-17T01:15:40;96524.78;;;14.06;76.48
58092;BME280;43896;48.178;11.578;2022-10-17T01:21:00;96493.19;;;13.88;75.92
58092;BME280;43896;48.178;11.578;2022-10-17T01:37:22;96494.38;;;13.94;76.86
58092;BME280;43896;48.178;11.578;2022-10-17T01:39:59;96511.06;;;13.95;76.89
58092;BME280;43896;48.178;11.578;2022-10-17T01:42:34;96491.53;;;13.79;76.86
58092;BME280;43896;48.178;11.578;2022-10-17T01:47:37;96460.44;;;13.73;76.14
58092;BME280;43896;48.178;11.578;2022-10-17T01:50:08;96439.78;;;13.68;75.94
58092;BME280;43896;48.178;11.578;2022-10-17T01:52:44;96428.03;;;13.63;75.49
58092;BME280;43896;48.178;11.578;2022-10-17T01:55:15;96517.84;;;14.14;75.62
58092;BME280;43896;48.178;11.578;2022-10-17T01:57:47;96438.91;;;13.60;75.72
58092;BME280;43896;48.178;11.578;2022-10-17T02:00:18;96426.72;;;13.59;75.19
58092;BME280;43896;48.178;11.578;2022-10-17T02:02:45;96491.88;;;13.93;75.04
58092;BME280;43896;48.178;11.578;2022-10-17T02:05:12;96440.38;;;13.46;75.40
58092;BME280;43896;48.178;11.578;2022-10-17T02:07:40;96517.50;;;14.00;75.77
58092;BME280;43896;48.178;11.578;2022-10-17T02:10:10;96432.97;;;13.49;75.59
58092;BME280;43896;48.178;11.578;2022-10-17T02:13:18;96457.47;;;13.76;75.39
58092;BME280;43896;48.178;11.578;2022-10-17T02:16:17;96509.75;;;14.07;75.11
58092;BME280;43896;48.178;11.578;2022-10-17T02:19:18;96467.53;;;13.73;75.23
58092;BME280;43896;48.178;11.578;2022-10-17T02:24:51;96451.13;;;13.44;75.57
58092;BME280;43896;48.178;11.578;2022-10-17T02:30:34;96507.03;;;13.74;75.88
58092;BME280;43896;48.178;11.578;2022-10-17T02:33:09;96486.50;;;13.52;76.09
58092;BME280;43896;48.178;11.578;2022-10-17T02:35:40;96413.81;;;13.05;76.51
58092;BME280;43896;48.178;11.578;2022-10-17T02:38:08;96472.59;;;13.41;76.63
58092;BME280;43896;48.178;11.578;2022-10-17T02:40:36;96504.22;;;13.67;76.24
58092;BME280;43896;48.178;11.578;2022-10-17T02:43:04;96470.63;;;13.52;75.92
58092;BME280;43896;48.178;11.578;2022-10-17T02:45:30;96466.63;;;13.39;75.98
58092;BME280;43896;48.178;11.578;2022-10-17T02:48:07;96508.69;;;13.67;76.26
58092;BME280;43896;48.178;11.578;2022-10-17T02:53:46;96451.19;;;13.26;76.33
58092;BME280;43896;48.178;11.578;2022-10-17T02:56:19;96454.88;;;13.34;76.43
58092;BME280;43896;48.178;11.578;2022-10-17T02:58:50;96465.63;;;13.40;75.98
58092;BME280;43896;48.178;11.578;2022-10-17T03:01:18;96522.44;;;13.79;75.78
58092;BME280;43896;48.178;11.578;2022-10-17T03:03:44;96413.38;;;13.18;75.14
58092;BME280;43896;48.178;11.578;2022-10-17T03:06:09;96444.16;;;13.35;74.75
58092;BME280;43896;48.178;11.578;2022-10-17T03:08:34;96513.66;;;13.78;74.77
58092;BME280;43896;48.178;11.578;2022-10-17T03:11:00;96468.63;;;13.45;74.96
58092;BME280;43896;48.178;11.578;2022-10-17T03:13:25;96519.59;;;13.72;75.17
58092;BME280;43896;48.178;11.578;2022-10-17T03:15:51;96525.66;;;13.64;75.09
58092;BME280;43896;48.178;11.578;2022-10-17T03:18:16;96496.72;;;13.46;74.83
58092;BME280;43896;48.178;11.578;2022-10-17T03:20:42;96525.47;;;13.58;75.26
58092;BME280;43896;48.178;11.578;2022-10-17T03:23:07;96473.66;;;13.22;75.07
58092;BME280;43896;48.178;11.578;2022-10-17T03:25:32;96455.88;;;13.06;75.42
58092;BME280;43896;48.178;11.578;2022-10-17T03:27:59;96524.94;;;13.46;75.16
58092;BME280;43896;48.178;11.578;2022-10-17T03:30:26;96509.91;;;13.12;76.47
58092;BME280;43896;48.178;11.578;2022-10-17T03:32:51;96468.00;;;12.83;76.05
58092;BME280;43896;48.178;11.578;2022-10-17T03:35:17;96520.69;;;13.27;75.48
58092;BME280;43896;48.178;11.578;2022-10-17T03:37:42;96485.13;;;13.05;75.78
58092;BME280;43896;48.178;11.578;2022-10-17T03:40:08;96527.41;;;13.39;75.24
58092;BME280;43896;48.178;11.578;2022-10-17T03:42:34;96474.03;;;13.01;75.00
58092;BME280;43896;48.178;11.578;2022-10-17T03:44:59;96433.69;;;12.83;74.80
58092;BME280;43896;48.178;11.578;2022-10-17T03:47:24;96526.34;;;13.32;74.83
58092;BME280;43896;48.178;11.578;2022-10-17T03:49:50;96529.47;;;13.27;74.85
58092;BME280;43896;48.178;11.578;2022-10-17T03:52:17;96468.00;;;12.83;74.97
58092;BME280;43896;48.178;11.578;2022-10-17T03:54:43;96459.47;;;12.63;75.05
58092;BME280;43896;48.178;11.578;2022-10-17T03:57:08;96446.38;;;12.53;75.13
58092;BME280;43896;48.178;11.578;2022-10-17T03:59:33;96535.25;;;12.97;75.56
58092;BME280;43896;48.178;11.578;2022-10-17T04:01:59;96471.63;;;12.55;75.33
58092;BME280;43896;48.178;11.578;2022-10-17T04:04:24;96466.34;;;12.55;75.12
58092;BME280;43896;48.178;11.578;2022-10-17T04:06:49;96502.63;;;12.80;75.80
58092;BME280;43896;48.178;11.578;2022-10-17T04:09:15;96534.59;;;13.03;75.91
58092;BME280;43896;48.178;11.578;2022-10-17T04:11:40;96528.84;;;13.07;75.47
58092;BME280;43896;48.178;11.578;2022-10-17T04:14:06;96497.50;;;12.78;75.40
58092;BME280;43896;48.178;11.578;2022-10-17T04:16:31;96475.22;;;12.54;75.59
58092;BME280;43896;48.178;11.578;2022-10-17T04:18:58;96453.88;;;12.40;75.50
58092;BME280;43896;48.178;11.578;2022-10-17T04:21:24;96546.03;;;12.85;75.65
58092;BME280;43896;48.178;11.578;2022-10-17T04:23:58;96483.63;;;12.50;75.76
58092;BME280;43896;48.178;11.578;2022-10-17T04:26:24;96539.00;;;12.94;75.63
58092;BME280;43896;48.178;11.578;2022-10-17T04:28:50;96506.03;;;12.72;75.76
58092;BME280;43896;48.178;11.578;2022-10-17T04:31:16;96476.75;;;12.57;75.26
58092;BME280;43896;48.178;11.578;2022-10-17T04:33:46;96450.91;;;12.43;75.20
58092;BME280;43896;48.178;11.578;2022-10-17T04:36:15;96522.59;;;12.82;75.39
58092;BME280;43896;48.178;11.578;2022-10-17T04:38:40;96479.19;;;12.50;75.18
58092;BME280;43896;48.178;11.578;2022-10-17T04:41:09;96460.13;;;12.38;75.22
58092;BME280;43896;48.178;11.578;2022-10-17T04:43:36;96464.47;;;12.48;73.78
58092;BME280;43896;48.178;11.578;2022-10-17T04:46:05;96488.06;;;12.49;76.20
58092;BME280;43896;48.178;11.578;2022-10-17T04:48:31;96515.91;;;12.70;73.89
58092;BME280;43896;48.178;11.578;2022-10-17T04:51:01;96523.00;;;12.69;74.42
58092;BME280;43896;48.178;11.578;2022-10-17T04:53:30;96554.31;;;12.90;74.66
58092;BME280;43896;48.178;11.578;2022-10-17T04:55:55;96532.59;;;12.70;74.67
58092;BME280;43896;48.178;11.578;2022-10-17T04:58:21;96556.88;;;12.74;75.51
58092;BME280;43896;48.178;11.578;2022-10-17T05:00:47;96572.72;;;12.74;74.94
58092;BME280;43896;48.178;11.578;2022-10-17T05:03:13;96514.84;;;12.36;74.50
58092;BME280;43896;48.178;11.578;2022-10-17T05:05:39;96475.84;;;12.04;74.63
58092;BME280;43896;48.178;11.578;2022-10-17T05:08:06;96503.34;;;12.19;74.52
58092;BME280;43896;48.178;11.578;2022-10-17T05:10:42;96507.31;;;12.24;74.27
58092;BME280;43896;48.178;11.578;2022-10-17T05:13:09;96515.44;;;12.30;74.99
58092;BME280;43896;48.178;11.578;2022-10-17T05:15:35;96549.03;;;12.46;74.67
58092;BME280;43896;48.178;11.578;2022-10-17T05:18:04;96483.38;;;11.99;75.07
58092;BME280;43896;48.178;11.578;2022-10-17T05:20:29;96583.63;;;12.61;74.99
58092;BME280;43896;48.178;11.578;2022-10-17T05:22:57;96532.56;;;12.26;74.88
58092;BME280;43896;48.178;11.578;2022-10-17T05:25:23;96560.38;;;12.38;73.86
58092;BME280;43896;48.178;11.578;2022-10-17T05:27:49;96520.22;;;12.09;75.01
58092;BME280;43896;48.178;11.578;2022-10-17T05:30:15;96515.91;;;12.08;74.91
58092;BME280;43896;48.178;11.578;2022-10-17T05:32:40;96555.69;;;12.32;74.69
58092;BME280;43896;48.178;11.578;2022-10-17T05:35:06;96570.25;;;12.36;75.26
58092;BME280;43896;48.178;11.578;2022-10-17T05:37:31;96554.34;;;12.28;75.09
58092;BME280;43896;48.178;11.578;2022-10-17T05:39:56;96596.47;;;12.56;75.59
58092;BME280;43896;48.178;11.578;2022-10-17T05:42:22;96529.19;;;12.16;75.03
58092;BME280;43896;48.178;11.578;2022-10-17T05:44:48;96604.59;;;12.63;74.72
58092;BME280;43896;48.178;11.578;2022-10-17T05:47:13;96604.31;;;12.66;74.98
58092;BME280;43896;48.178;11.578;2022-10-17T05:49:39;96576.66;;;12.52;74.29
58092;BME280;43896;48.178;11.578;2022-10-17T05:52:04;96577.75;;;12.49;74.21
58092;BME280;43896;48.178;11.578;2022-10-17T05:54:30;96611.03;;;12.60;74.98
58092;BME280;43896;48.178;11.578;2022-10-17T05:57:03;96602.25;;;12.60;74.63
58092;BME280;43896;48.178;11.578;2022-10-17T05:59:32;96538.00;;;12.25;74.39
58092;BME280;43896;48.178;11.578;2022-10-17T06:01:58;96582.50;;;12.46;74.63
58092;BME280;43896;48.178;11.578;2022-10-17T06:04:23;96619.63;;;12.62;74.84
58092;BME280;43896;48.178;11.578;2022-10-17T06:06:48;96573.63;;;12.11;75.20
58092;BME280;43896;48.178;11.578;2022-10-17T06:09:14;96523.34;;;11.94;74.69
58092;BME280;43896;48.178;11.578;2022-10-17T06:11:39;96560.81;;;12.16;75.21
58092;BME280;43896;48.178;11.578;2022-10-17T06:14:05;96615.22;;;12.53;75.01
58092;BME280;43896;48.178;11.578;2022-10-17T06:16:30;96606.34;;;12.54;74.90
58092;BME280;43896;48.178;11.578;2022-10-17T06:18:55;96601.06;;;12.54;74.93
58092;BME280;43896;48.178;11.578;2022-10-17T06:21:23;96572.63;;;12.48;73.68
58092;BME280;43896;48.178;11.578;2022-10-17T06:23:49;96622.91;;;12.82;74.46
58092;BME280;43896;48.178;11.578;2022-10-17T06:26:14;96616.13;;;12.80;73.90
58092;BME280;43896;48.178;11.578;2022-10-17T06:28:40;96598.13;;;12.57;74.31
58092;BME280;43896;48.178;11.578;2022-10-17T06:31:10;96617.88;;;12.71;74.55
58092;BME280;43896;48.178;11.578;2022-10-17T06:33:36;96611.69;;;12.62;75.71
58092;BME280;43896;48.178;11.578;2022-10-17T06:36:03;96622.84;;;12.74;75.79
58092;BME280;43896;48.178;11.578;2022-10-17T06:38:29;96619.81;;;12.87;74.57
58092;BME280;43896;48.178;11.578;2022-10-17T06:41:01;96622.50;;;12.95;74.02
58092;BME280;43896;48.178;11.578;2022-10-17T06:44:03;96633.81;;;13.05;74.51
58092;BME280;43896;48.178;11.578;2022-10-17T06:46:35;96645.72;;;13.09;74.71
58092;BME280;43896;48.178;11.578;2022-10-17T06:49:00;96599.50;;;12.87;74.61
58092;BME280;43896;48.178;11.578;2022-10-17T06:51:26;96579.38;;;12.86;75.26
58092;BME280;43896;48.178;11.578;2022-10-17T06:53:51;96613.56;;;13.14;75.10
58092;BME280;43896;48.178;11.578;2022-10-17T06:56:16;96606.47;;;13.14;75.08
58092;BME280;43896;48.178;11.578;2022-10-17T06:58:43;96659.44;;;13.57;74.82
58092;BME280;43896;48.178;11.578;2022-10-17T07:01:11;96640.63;;;13.60;74.84
58092;BME280;43896;48.178;11.578;2022-10-17T07:03:37;96660.22;;;13.76;75.28
58092;BME280;43896;48.178;11.578;2022-10-17T07:06:04;96639.53;;;13.71;75.67
58092;BME280;43896;48.178;11.578;2022-10-17T07:08:30;96647.50;;;13.79;76.12
58092;BME280;43896;48.178;11.578;2022-10-17T07:10:55;96626.97;;;13.73;75.51
58092;BME280;43896;48.178;11.578;2022-10-17T07:13:21;96613.25;;;13.69;75.34
58092;BME280;43896;48.178;11.578;2022-10-17T07:15:47;96620.75;;;13.91;75.22
58092;BME280;43896;48.178;11.578;2022-10-17T07:18:12;96664.69;;;14.26;75.02
58092;BME280;43896;48.178;11.578;2022-10-17T07:20:37;96640.66;;;14.11;74.85
58092;BME280;43896;48.178;11.578;2022-10-17T07:23:04;96659.94;;;14.38;72.33
58092;BME280;43896;48.178;11.578;2022-10-17T07:25:29;96672.03;;;14.49;71.62
58092;BME280;43896;48.178;11.578;2022-10-17T07:27:55;96681.50;;;14.59;70.34
58092;BME280;43896;48.178;11.578;2022-10-17T07:30:21;96675.91;;;14.71;70.57
58092;BME280;43896;48.178;11.578;2022-10-17T07:32:46;96659.53;;;14.67;71.07
58092;BME280;43896;48.178;11.578;2022-10-17T07:35:13;96698.44;;;14.91;70.81
58092;BME280;43896;48.178;11.578;2022-10-17T07:37:38;96671.78;;;14.85;71.67
58092;BME280;43896;48.178;11.578;2022-10-17T07:40:05;96690.38;;;15.01;70.90
58092;BME280;43896;48.178;11.578;2022-10-17T07:42:33;96710.41;;;15.20;69.96
58092;BME280;43896;48.178;11.578;2022-10-17T07:45:00;96677.09;;;15.09;69.29
58092;BME280;43896;48.178;11.578;2022-10-17T07:47:25;96713.03;;;15.36;69.08
58092;BME280;43896;48.178;11.578;2022-10-17T07:49:50;96708.72;;;15.52;67.90
58092;BME280;43896;48.178;11.578;2022-10-17T07:52:16;96705.56;;;15.65;66.60
58092;BME280;43896;48.178;11.578;2022-10-17T07:54:41;96678.50;;;15.69;66.65
58092;BME280;43896;48.178;11.578;2022-10-17T07:57:08;96668.41;;;15.81;65.45
58092;BME280;43896;48.178;11.578;2022-10-17T07:59:34;96690.72;;;16.03;65.07
58092;BME280;43896;48.178;11.578;2022-10-17T08:02:01;96685.06;;;16.15;64.73
58092;BME280;43896;48.178;11.578;2022-10-17T08:04:26;96693.56;;;16.33;64.03
58092;BME280;43896;48.178;11.578;2022-10-17T08:06:52;96709.75;;;16.55;62.71
58092;BME280;43896;48.178;11.578;2022-10-17T08:09:17;96680.88;;;16.52;62.40
58092;BME280;43896;48.178;11.578;2022-10-17T08:11:43;96682.50;;;16.61;62.42
58092;BME280;43896;48.178;11.578;2022-10-17T08:14:09;96693.66;;;16.79;61.37
58092;BME280;43896;48.178;11.578;2022-10-17T08:16:35;96682.03;;;16.80;61.02
58092;BME280;43896;48.178;11.578;2022-10-17T08:19:00;96700.91;;;16.94;60.28
58092;BME280;43896;48.178;11.578;2022-10-17T08:21:26;96688.44;;;16.94;60.38
58092;BME280;43896;48.178;11.578;2022-10-17T08:23:51;96693.84;;;17.09;59.13
58092;BME280;43896;48.178;11.578;2022-10-17T08:26:17;96687.19;;;17.05;59.12
58092;BME280;43896;48.178;11.578;2022-10-17T08:28:44;96684.50;;;17.13;59.13
58092;BME280;43896;48.178;11.578;2022-10-17T08:31:15;96707.56;;;17.36;58.62
58092;BME280;43896;48.178;11.578;2022-10-17T08:33:43;96706.06;;;17.56;58.85
58092;BME280;43896;48.178;11.578;2022-10-17T08:36:08;96672.78;;;17.60;58.41
58092;BME280;43896;48.178;11.578;2022-10-17T08:38:35;96693.84;;;18.00;57.06
58092;BME280;43896;48.178;11.578;2022-10-17T08:41:03;96692.28;;;17.91;58.10
58092;BME280;43896;48.178;11.578;2022-10-17T08:46:30;96674.66;;;18.56;56.01
58092;BME280;43896;48.178;11.578;2022-10-17T08:48:57;96673.03;;;18.91;55.15
58092;BME280;43896;48.178;11.578;2022-10-17T08:51:27;96691.78;;;19.26;54.30
58092;BME280;43896;48.178;11.578;2022-10-17T08:54:05;96691.25;;;19.59;53.86
58092;BME280;43896;48.178;11.578;2022-10-17T08:56:47;96691.09;;;19.89;53.20
58092;BME280;43896;48.178;11.578;2022-10-17T08:59:17;96684.75;;;19.97;53.03
58092;BME280;43896;48.178;11.578;2022-10-17T09:07:19;96698.91;;;20.32;52.09
58092;BME280;43896;48.178;11.578;2022-10-17T09:09:54;96697.22;;;20.24;51.34
58092;BME280;43896;48.178;11.578;2022-10-17T09:15:17;96687.13;;;20.20;52.42
58092;BME280;43896;48.178;11.578;2022-10-17T09:17:53;96714.47;;;20.22;51.67
58092;BME280;43896;48.178;11.578;2022-10-17T09:20:23;96694.28;;;20.13;52.15
58092;BME280;43896;48.178;11.578;2022-10-17T09:22:59;96705.69;;;20.35;51.23
58092;BME280;43896;48.178;11.578;2022-10-17T09:25:25;96712.53;;;20.51;50.10
58092;BME280;43896;48.178;11.578;2022-10-17T09:27:58;96707.09;;;20.72;50.09
58092;BME280;43896;48.178;11.578;2022-10-17T09:30:34;96708.00;;;21.00;49.85
58092;BME280;43896;48.178;11.578;2022-10-17T09:33:12;96708.47;;;21.36;48.63
58092;BME280;43896;48.178;11.578;2022-10-17T09:35:38;96710.78;;;21.66;47.68
58092;BME280;43896;48.178;11.578;2022-10-17T09:38:10;96705.97;;;22.02;47.38
58092;BME280;43896;48.178;11.578;2022-10-17T09:40:38;96664.34;;;22.13;45.61
58092;BME280;43896;48.178;11.578;2022-10-17T09:43:05;96691.63;;;22.93;45.00
58092;BME280;43896;48.178;11.578;2022-10-17T09:45:39;96703.34;;;23.63;44.21
58092;BME280;43896;48.178;11.578;2022-10-17T09:48:21;96691.88;;;23.99;42.41
58092;BME280;43896;48.178;11.578;2022-10-17T09:50:49;96677.78;;;24.22;41.20
58092;BME280;43896;48.178;11.578;2022-10-17T09:53:30;96709.00;;;24.42;41.01
58092;BME280;43896;48.178;11.578;2022-10-17T09:56:01;96676.13;;;23.77;41.92
58092;BME280;43896;48.178;11.578;2022-10-17T09:58:41;96717.34;;;23.96;41.65
58092;BME280;43896;48.178;11.578;2022-10-17T10:01:28;96718.59;;;23.94;42.25
58092;BME280;43896;48.178;11.578;2022-10-17T10:04:14;96677.25;;;23.45;41.74
58092;BME280;43896;48.178;11.578;2022-10-17T10:06:40;96724.56;;;23.46;42.36
58092;BME280;43896;48.178;11.578;2022-10-17T10:09:27;96677.00;;;22.89;43.64
58092;BME280;43896;48.178;11.578;2022-10-17T10:11:57;96693.81;;;22.78;44.08
58092;BME280;43896;48.178;11.578;2022-10-17T10:14:29;96681.56;;;22.43;45.34
58092;BME280;43896;48.178;11.578;2022-10-17T10:16:58;96693.56;;;22.14;45.35
58092;BME280;43896;48.178;11.578;2022-10-17T10:19:31;96725.97;;;22.06;46.37
58092;BME280;43896;48.178;11.578;2022-10-17T10:22:04;96737.25;;;21.21;48.27
58092;BME280;43896;48.178;11.578;2022-10-17T10:24:31;96707.91;;;21.61;47.76
58092;BME280;43896;48.178;11.578;2022-10-17T10:26:59;96704.16;;;21.89;47.15
58092;BME280;43896;48.178;11.578;2022-10-17T10:32:06;96718.72;;;22.33;45.23
58092;BME280;43896;48.178;11.578;2022-10-17T10:34:33;96723.94;;;22.73;45.41
58092;BME280;43896;48.178;11.578;2022-10-17T10:37:02;96695.00;;;22.82;45.75
58092;BME280;43896;48.178;11.578;2022-10-17T10:39:36;96715.31;;;23.03;44.95
58092;BME280;43896;48.178;11.578;2022-10-17T10:42:07;96697.78;;;23.00;44.04
58092;BME280;43896;48.178;11.578;2022-10-17T10:44:41;96697.59;;;23.02;44.35
58092;BME280;43896;48.178;11.578;2022-10-17T10:47:08;96708.25;;;23.15;43.81
58092;BME280;43896;48.178;11.578;2022-10-17T10:49:38;96694.44;;;23.12;43.71
58092;BME280;43896;48.178;11.578;2022-10-17T10:52:04;96699.41;;;23.08;44.67
58092;BME280;43896;48.178;11.578;2022-10-17T10:54:36;96694.91;;;23.02;44.38
58092;BME280;43896;48.178;11.578;2022-10-17T10:57:03;96693.31;;;22.88;44.16
58092;BME280;43896;48.178;11.578;2022-10-17T10:59:37;96689.66;;;22.75;44.40
58092;BME280;43896;48.178;11.578;2022-10-17T11:02:25;96712.78;;;22.04;46.51
58092;BME280;43896;48.178;11.578;2022-10-17T11:05:03;96718.75;;;22.06;47.82
58092;BME280;43896;48.178;11.578;2022-10-17T11:07:34;96711.09;;;22.17;46.33
58092;BME280;43896;48.178;11.578;2022-10-17T11:10:19;96708.22;;;22.32;44.96
58092;BME280;43896;48.178;11.578;2022-10-17T11:13:12;96713.78;;;22.37;44.86
58092;BME280;43896;48.178;11.578;2022-10-17T11:15:56;96697.59;;;21.78;45.54
58092;BME280;43896;48.178;11.578;2022-10-17T11:21:14;96696.91;;;22.09;45.79
58092;BME280;43896;48.178;11.578;2022-10-17T11:24:00;96685.38;;;22.02;45.75
58092;BME280;43896;48.178;11.578;2022-10-17T11:26:28;96705.53;;;22.32;46.04
58092;BME280;43896;48.178;11.578;2022-10-17T11:28:57;96700.47;;;21.77;46.04
58092;BME280;43896;48.178;11.578;2022-10-17T11:31:30;96706.44;;;21.85;46.11
58092;BME280;43896;48.178;11.578;2022-10-17T11:33:59;96703.97;;;21.84;45.86
58092;BME280;43896;48.178;11.578;2022-10-17T11:36:30;96702.50;;;21.88;46.67
58092;BME280;43896;48.178;11.578;2022-10-17T11:39:03;96710.97;;;21.71;48.55
58092;BME280;43896;48.178;11.578;2022-10-17T11:46:38;96670.38;;;21.08;49.01
58092;BME280;43896;48.178;11.578;2022-10-17T11:49:18;96681.28;;;21.06;47.20
58092;BME280;43896;48.178;11.578;2022-10-17T11:52:53;96686.63;;;21.06;48.13
58092;BME280;43896;48.178;11.578;2022-10-17T11:54:52;96679.38;;;20.87;48.54
58092;BME280;43896;48.178;11.578;2022-10-17T12:00:42;96697.97;;;21.28;46.81
58092;BME280;43896;48.178;11.578;2022-10-17T12:03:35;96692.59;;;21.35;46.87
58092;BME280;43896;48.178;11.578;2022-10-17T12:06:14;96681.69;;;21.36;45.77
58092;BME280;43896;48.178;11.578;2022-10-17T12:14:41;96690.78;;;21.56;45.14
58092;BME280;43896;48.178;11.578;2022-10-17T12:19:50;96671.03;;;21.50;45.84
58092;BME280;43896;48.178;11.578;2022-10-17T12:24:53;96648.56;;;21.17;45.13
58092;BME280;43896;48.178;11.578;2022-10-17T12:27:36;96683.56;;;21.43;45.55
58092;BME280;43896;48.178;11.578;2022-10-17T12:30:14;96655.97;;;21.22;45.72
58092;BME280;43896;48.178;11.578;2022-10-17T12:33:15;96673.88;;;21.35;45.48
58092;BME280;43896;48.178;11.578;2022-10-17T12:35:49;96686.66;;;21.40;46.18
58092;BME280;43896;48.178;11.578;2022-10-17T12:38:24;96655.34;;;21.40;44.95
58092;BME280;43896;48.178;11.578;2022-10-17T12:40:52;96647.97;;;21.49;44.44
58092;BME280;43896;48.178;11.578;2022-10-17T12:46:03;96641.78;;;21.48;44.23
58092;BME280;43896;48.178;11.578;2022-10-17T12:51:09;96677.59;;;21.87;42.99
58092;BME280;43896;48.178;11.578;2022-10-17T12:54:01;96657.00;;;21.75;41.79
58092;BME280;43896;48.178;11.578;2022-10-17T12:56:40;96684.75;;;21.94;43.02
58092;BME280;43896;48.178;11.578;2022-10-17T12:59:14;96649.59;;;21.83;42.13
58092;BME280;43896;48.178;11.578;2022-10-17T13:01:44;96660.25;;;21.90;42.13
58092;BME280;43896;48.178;11.578;2022-10-17T13:04:10;96676.31;;;22.03;41.79
58092;BME280;43896;48.178;11.578;2022-10-17T13:06:43;96672.63;;;21.98;42.28
58092;BME280;43896;48.178;11.578;2022-10-17T13:11:58;96654.28;;;21.88;41.40
58092;BME280;43896;48.178;11.578;2022-10-17T13:14:25;96647.50;;;21.85;42.37
58092;BME280;43896;48.178;11.578;2022-10-17T13:17:00;96647.91;;;21.89;42.39
58092;BME280;43896;48.178;11.578;2022-10-17T13:19:39;96674.00;;;22.14;41.85
58092;BME280;43896;48.178;11.578;2022-10-17T13:22:20;96625.69;;;21.88;41.99
58092;BME280;43896;48.178;11.578;2022-10-17T13:24:47;96674.19;;;22.19;43.00
58092;BME280;43896;48.178;11.578;2022-10-17T13:27:30;96670.28;;;22.21;42.15
58092;BME280;43896;48.178;11.578;2022-10-17T13:29:58;96643.53;;;22.08;41.72
58092;BME280;43896;48.178;11.578;2022-10-17T13:32:27;96607.34;;;21.92;41.77
58092;BME280;43896;48.178;11.578;2022-10-17T13:35:10;96682.19;;;22.45;43.27
58092;BME280;43896;48.178;11.578;2022-10-17T13:37:38;96606.50;;;21.85;43.84
58092;BME280;43896;48.178;11.578;2022-10-17T13:40:05;96655.88;;;22.16;43.53
58092;BME280;43896;48.178;11.578;2022-10-17T13:42:37;96622.34;;;21.93;41.96
58092;BME280;43896;48.178;11.578;2022-10-17T13:45:04;96629.53;;;22.13;42.04
58092;BME280;43896;48.178;11.578;2022-10-17T13:47:38;96674.78;;;22.41;43.51
58092;BME280;43896;48.178;11.578;2022-10-17T13:50:04;96607.97;;;21.81;45.11
58092;BME280;43896;48.178;11.578;2022-10-17T13:52:29;96676.28;;;22.10;45.91
58092;BME280;43896;48.178;11.578;2022-10-17T13:55:06;96673.03;;;21.95;46.67
58092;BME280;43896;48.178;11.578;2022-10-17T13:57:32;96603.31;;;21.56;44.93
58092;BME280;43896;48.178;11.578;2022-10-17T14:00:01;96640.09;;;21.87;45.31
58092;BME280;43896;48.178;11.578;2022-10-17T14:02:31;96606.38;;;21.60;44.98
58092;BME280;43896;48.178;11.578;2022-10-17T14:05:07;96666.84;;;22.07;43.65
58092;BME280;43896;48.178;11.578;2022-10-17T14:07:38;96673.00;;;22.01;44.22
58092;BME280;43896;48.178;11.578;2022-10-17T14:10:05;96651.22;;;21.84;44.84
58092;BME280;43896;48.178;11.578;2022-10-17T14:12:42;96658.63;;;21.89;42.86
58092;BME280;43896;48.178;11.578;2022-10-17T14:15:12;96612.94;;;21.70;42.13
58092;BME280;43896;48.178;11.578;2022-10-17T14:17:39;96639.09;;;21.82;41.68